Time;durP1;ratioP1;P1;durP2;ratioP2;P2;SDS_P1;SDS_P2;PMS_P1;PMS_P2;Temp;Humidity;BMP_temperature;BMP_pressure;BME280_temperature;BME280_humidity;BME280_pressure;Samples;Min_cycle;Max_cycle;Signal;HPM_P1;HPM_P2
2022/07/24 00:02:21;;;;;;;12.32;7.43;;;;;;;19.63;100.00;99009.22;5083173;28;20036;-70
2022/07/24 00:04:46;;;;;;;11.80;7.57;;;;;;;19.64;100.00;99024.56;5056519;28;20028;-71
2022/07/24 00:07:12;;;;;;;10.50;7.50;;;;;;;19.59;100.00;99025.34;5084273;28;20558;-71
2022/07/24 00:09:37;;;;;;;11.75;7.53;;;;;;;19.54;100.00;99028.03;5066918;28;20393;-69
2022/07/24 00:12:03;;;;;;;10.70;7.78;;;;;;;19.40;100.00;99010.31;5076527;28;20044;-70
2022/07/24 00:14:29;;;;;;;12.70;7.43;;;;;;;19.53;100.00;99029.13;5066508;28;20028;-71
2022/07/24 00:16:54;;;;;;;10.73;7.10;;;;;;;19.51;100.00;99022.22;5077225;28;20070;-70
2022/07/24 00:19:20;;;;;;;9.88;6.80;;;;;;;19.64;100.00;99013.59;5084769;28;20028;-69
2022/07/24 00:21:45;;;;;;;8.45;6.70;;;;;;;19.65;100.00;99004.28;5076795;28;20028;-70
2022/07/24 00:24:10;;;;;;;11.68;6.80;;;;;;;19.64;100.00;99003.44;5079040;28;20451;-70
2022/07/24 00:26:36;;;;;;;13.43;7.38;;;;;;;19.72;100.00;99021.41;5088709;28;20036;-69
2022/07/24 00:29:01;;;;;;;9.50;6.70;;;;;;;19.70;100.00;99021.69;5083831;28;20043;-71
2022/07/24 00:31:26;;;;;;;9.48;6.65;;;;;;;19.58;100.00;99000.91;5089095;28;20033;-71
2022/07/24 00:33:52;;;;;;;10.68;7.05;;;;;;;19.77;100.00;99018.72;5081342;28;20059;-70
2022/07/24 00:36:17;;;;;;;10.35;7.10;;;;;;;19.62;100.00;98999.31;5084081;28;20029;-67
2022/07/24 00:38:43;;;;;;;13.90;7.28;;;;;;;19.59;100.00;99008.06;5080142;28;20028;-69
2022/07/24 00:41:08;;;;;;;10.50;7.13;;;;;;;19.62;100.00;99013.88;5074065;28;20110;-70
2022/07/24 00:43:34;;;;;;;10.38;7.22;;;;;;;19.53;100.00;99004.41;5086732;28;20035;-70
2022/07/24 00:45:59;;;;;;;10.68;7.50;;;;;;;19.47;100.00;99020.00;5072025;28;20046;-69
2022/07/24 00:48:25;;;;;;;11.57;7.22;;;;;;;19.34;100.00;99009.41;5083915;28;20028;-70
2022/07/24 00:50:51;;;;;;;9.25;7.18;;;;;;;19.38;100.00;99013.28;5088514;28;20023;-69
2022/07/24 00:53:16;;;;;;;9.70;6.88;;;;;;;19.30;100.00;99008.25;5082106;28;20028;-71
2022/07/24 00:55:42;;;;;;;12.50;7.78;;;;;;;19.27;100.00;99023.31;5087749;28;20036;-70
2022/07/24 00:58:07;;;;;;;9.25;7.30;;;;;;;19.19;100.00;99004.56;5063414;28;20477;-70
2022/07/24 01:00:33;;;;;;;11.63;8.02;;;;;;;19.04;100.00;99002.44;5090459;28;20536;-70
2022/07/24 01:02:59;;;;;;;11.27;7.40;;;;;;;19.08;100.00;99001.97;5063281;28;20016;-69
2022/07/24 01:05:24;;;;;;;10.57;7.53;;;;;;;19.29;100.00;99016.75;5081314;28;20051;-71
2022/07/24 01:07:49;;;;;;;9.63;7.65;;;;;;;19.08;100.00;98996.47;5085249;28;20154;-70
2022/07/24 01:10:15;;;;;;;10.88;7.72;;;;;;;19.15;100.00;99013.53;5083742;28;20031;-69
2022/07/24 01:12:41;;;;;;;9.82;7.72;;;;;;;19.12;100.00;99016.81;5067719;28;20030;-71
2022/07/24 01:15:08;;;;;;;14.15;8.82;;;;;;;18.88;100.00;98981.38;5059860;28;20024;-70
2022/07/24 01:17:36;;;;;;;12.07;8.18;;;;;;;18.93;100.00;98989.69;5082260;28;20073;-70
2022/07/24 01:20:04;;;;;;;10.75;8.48;;;;;;;18.99;100.00;99005.13;5083347;28;20052;-70
2022/07/24 01:22:29;;;;;;;15.43;9.93;;;;;;;18.83;100.00;98990.38;5090792;28;20104;-70
2022/07/24 01:24:55;;;;;;;13.63;9.75;;;;;;;18.85;100.00;99006.56;5081263;28;20432;-70
2022/07/24 01:27:24;;;;;;;14.68;9.38;;;;;;;18.66;100.00;98999.69;5081083;28;20054;-71
2022/07/24 01:29:50;;;;;;;;;;;;;;;18.73;100.00;99019.50;5079842;28;20095;-70
2022/07/24 01:32:16;;;;;;;14.50;10.18;;;;;;;18.85;100.00;99008.50;5086890;28;19920;-70
2022/07/24 01:34:41;;;;;;;13.95;9.15;;;;;;;18.74;100.00;98994.59;5086644;28;20051;-70
2022/07/24 01:37:07;;;;;;;12.10;9.30;;;;;;;18.77;100.00;99005.09;5081673;28;20073;-70
2022/07/24 01:39:32;;;;;;;12.77;9.68;;;;;;;18.79;100.00;99015.81;5061234;28;20023;-70
2022/07/24 01:41:57;;;;;;;12.90;9.30;;;;;;;18.70;100.00;99009.06;5082493;28;20047;-70
2022/07/24 01:44:23;;;;;;;14.98;10.13;;;;;;;18.60;100.00;99012.47;5084099;28;20028;-70
2022/07/24 01:46:48;;;;;;;15.90;9.73;;;;;;;18.34;100.00;98981.94;5083613;28;20028;-71
2022/07/24 01:49:14;;;;;;;11.98;8.85;;;;;;;18.53;100.00;99012.66;5083765;28;20406;-71
2022/07/24 01:51:39;;;;;;;14.07;9.27;;;;;;;18.58;100.00;99000.94;5083967;28;20027;-71
2022/07/24 01:54:05;;;;;;;12.45;8.73;;;;;;;18.41;100.00;98992.72;5085220;28;20377;-71
2022/07/24 01:56:32;;;;;;;12.52;9.70;;;;;;;18.52;100.00;99002.78;5084782;28;20115;-68
2022/07/24 01:58:58;;;;;;;14.45;9.93;;;;;;;18.50;100.00;99017.81;5063406;28;20876;-71
2022/07/24 02:01:24;;;;;;;15.07;9.88;;;;;;;18.35;100.00;99011.00;5083889;28;20023;-70
2022/07/24 02:03:49;;;;;;;12.27;9.10;;;;;;;18.32;100.00;98999.72;5079707;28;20024;-71
2022/07/24 02:06:15;;;;;;;15.38;9.07;;;;;;;18.28;100.00;98993.88;5079556;28;20024;-67
2022/07/24 02:08:40;;;;;;;16.80;9.38;;;;;;;18.23;100.00;98999.28;5075204;28;20131;-70
2022/07/24 02:11:06;;;;;;;12.93;8.63;;;;;;;18.21;100.00;98989.66;5087156;28;20218;-70
2022/07/24 02:13:31;;;;;;;12.55;8.80;;;;;;;18.16;100.00;99002.19;5088232;28;20077;-70
2022/07/24 02:15:57;;;;;;;12.55;8.80;;;;;;;17.99;100.00;98984.09;5088238;28;20115;-69
2022/07/24 02:18:22;;;;;;;14.98;9.15;;;;;;;17.98;100.00;99002.41;5086211;28;20028;-71
2022/07/24 02:20:48;;;;;;;14.13;9.15;;;;;;;17.85;100.00;98992.59;5075071;28;20023;-72
2022/07/24 02:23:17;;;;;;;12.02;8.85;;;;;;;17.79;100.00;98998.19;5081875;28;20033;-70
2022/07/24 02:25:47;;;;;;;13.10;9.20;;;;;;;17.84;100.00;99009.25;5079053;28;20047;-72
2022/07/24 02:28:13;;;;;;;13.63;8.80;;;;;;;17.59;100.00;98972.13;5075364;28;20485;-72
2022/07/24 02:30:38;;;;;;;12.80;8.90;;;;;;;17.69;100.00;99009.78;5081359;28;20117;-69
2022/07/24 02:33:04;;;;;;;15.27;9.02;;;;;;;17.64;100.00;99005.06;5084531;28;20008;-72
2022/07/24 02:35:29;;;;;;;11.35;9.15;;;;;;;17.62;100.00;99015.41;5087433;28;20053;-72
2022/07/24 02:37:54;;;;;;;11.15;8.45;;;;;;;17.43;100.00;98990.16;5076925;28;20119;-72
2022/07/24 02:40:19;;;;;;;14.88;10.13;;;;;;;17.47;100.00;98998.69;5087659;28;20110;-71
2022/07/24 02:42:45;;;;;;;13.32;9.57;;;;;;;17.49;100.00;98999.28;5087353;28;20021;-72
2022/07/24 02:45:11;;;;;;;13.13;9.77;;;;;;;17.63;100.00;99005.28;5086996;28;20462;-72
2022/07/24 02:47:46;;;;;;;12.50;9.52;;;;;;;17.70;100.00;98990.38;5086347;28;20501;-71
2022/07/24 02:50:12;;;;;;;12.95;9.18;;;;;;;17.59;100.00;98991.28;5083922;28;20024;-72
2022/07/24 02:52:37;;;;;;;13.43;8.75;;;;;;;17.60;100.00;99001.13;5077461;28;20051;-72
2022/07/24 02:55:03;;;;;;;12.95;9.05;;;;;;;17.60;100.00;99008.50;5082429;28;20062;-72
2022/07/24 02:57:28;;;;;;;13.88;9.43;;;;;;;17.49;100.00;99004.75;5087572;28;20019;-72
2022/07/24 02:59:53;;;;;;;13.65;9.73;;;;;;;17.23;100.00;98984.25;5081806;28;20028;-72
2022/07/24 03:02:19;;;;;;;14.00;10.05;;;;;;;17.21;100.00;99017.34;5081795;28;20147;-72
2022/07/24 03:04:44;;;;;;;17.17;9.80;;;;;;;17.01;100.00;98998.59;5086373;28;20024;-71
2022/07/24 03:07:09;;;;;;;12.45;9.43;;;;;;;17.04;100.00;98997.28;5074126;28;20405;-72
2022/07/24 03:09:35;;;;;;;12.25;9.25;;;;;;;17.10;100.00;99018.16;5080213;28;20050;-72
2022/07/24 03:12:00;;;;;;;13.73;9.85;;;;;;;17.16;100.00;99016.38;5078304;28;20020;-70
2022/07/24 03:14:26;;;;;;;13.52;8.70;;;;;;;17.09;100.00;99019.25;5088452;28;20039;-72
2022/07/24 03:16:51;;;;;;;15.73;10.07;;;;;;;17.19;100.00;99011.28;5075089;28;20099;-72
2022/07/24 03:19:16;;;;;;;15.07;9.63;;;;;;;17.01;100.00;98971.25;5086042;28;20024;-72
2022/07/24 03:21:41;;;;;;;14.30;9.45;;;;;;;17.33;100.00;99014.56;5080323;28;20033;-71
2022/07/24 03:24:07;;;;;;;16.95;9.70;;;;;;;17.19;100.00;99005.81;5085095;28;20021;-71
2022/07/24 03:26:32;;;;;;;12.60;9.90;;;;;;;17.26;100.00;99014.69;5077661;28;20035;-70
2022/07/24 03:28:57;;;;;;;14.38;9.20;;;;;;;17.29;100.00;99019.69;5079993;28;20031;-72
2022/07/24 03:31:23;;;;;;;14.57;10.13;;;;;;;17.12;100.00;99002.38;5078963;28;20020;-71
2022/07/24 03:33:48;;;;;;;13.05;9.52;;;;;;;17.10;100.00;99001.75;5086022;28;20040;-72
2022/07/24 03:36:13;;;;;;;14.15;10.15;;;;;;;17.11;100.00;99024.47;5081507;28;20043;-72
2022/07/24 03:38:39;;;;;;;17.38;10.35;;;;;;;17.08;100.00;99023.03;5083270;28;20031;-72
2022/07/24 03:41:04;;;;;;;13.65;10.13;;;;;;;16.99;100.00;99019.03;5083151;28;20027;-72
2022/07/24 03:43:29;;;;;;;12.90;9.10;;;;;;;16.84;100.00;99000.38;5073682;28;20059;-69
2022/07/24 03:45:55;;;;;;;15.38;9.20;;;;;;;16.81;100.00;99007.16;5084886;28;20028;-72
2022/07/24 03:48:20;;;;;;;12.70;9.70;;;;;;;16.92;100.00;99015.59;5145361;22;20427;-63
2022/07/24 03:50:46;;;;;;;13.10;9.63;;;;;;;16.93;100.00;99017.25;5066463;28;20028;-65
2022/07/24 03:53:11;;;;;;;13.68;9.18;;;;;;;16.96;100.00;99022.25;5054489;28;20472;-62
2022/07/24 03:55:36;;;;;;;14.80;9.65;;;;;;;16.93;100.00;99022.72;5043133;28;20033;-64
2022/07/24 03:58:02;;;;;;;14.10;9.07;;;;;;;16.91;100.00;99025.69;5042222;28;20504;-64
2022/07/24 04:00:27;;;;;;;15.30;9.35;;;;;;;16.94;100.00;99036.13;5049790;28;20029;-64
2022/07/24 04:02:53;;;;;;;14.25;9.68;;;;;;;16.90;100.00;99034.97;5052780;28;20387;-64
2022/07/24 04:05:18;;;;;;;13.93;10.50;;;;;;;16.91;100.00;99033.06;5049001;28;20035;-65
2022/07/24 04:07:43;;;;;;;14.15;9.68;;;;;;;16.88;100.00;99034.38;5050941;28;20372;-64
2022/07/24 04:10:09;;;;;;;15.35;10.23;;;;;;;16.96;100.00;99042.19;5050996;28;20029;-65
2022/07/24 04:12:34;;;;;;;14.32;9.60;;;;;;;16.90;100.00;99034.97;5054012;28;20032;-64
2022/07/24 04:15:00;;;;;;;12.30;9.25;;;;;;;16.97;100.00;99043.03;5045576;28;20033;-64
2022/07/24 04:17:25;;;;;;;15.65;10.88;;;;;;;17.04;100.00;99043.75;5050646;28;20499;-64
2022/07/24 04:19:51;;;;;;;15.75;11.05;;;;;;;17.09;100.00;99043.84;5054406;28;20017;-65
2022/07/24 04:22:16;;;;;;;16.63;11.98;;;;;;;17.15;100.00;99045.63;5055234;28;20100;-65
2022/07/24 04:24:42;;;;;;;17.55;11.38;;;;;;;17.23;100.00;99052.63;5048267;28;20056;-64
2022/07/24 04:27:07;;;;;;;14.95;10.80;;;;;;;17.28;100.00;99048.09;5056094;28;20439;-65
2022/07/24 04:29:33;;;;;;;14.35;10.65;;;;;;;17.28;100.00;99044.53;5054384;28;20025;-65
2022/07/24 04:31:58;;;;;;;15.60;10.23;;;;;;;17.39;100.00;99051.88;5054566;28;20037;-65
2022/07/24 04:34:24;;;;;;;15.90;10.52;;;;;;;17.47;100.00;99054.22;5051477;28;20492;-65
2022/07/24 04:36:49;;;;;;;16.83;11.40;;;;;;;17.61;100.00;99052.06;5049587;28;20202;-65
2022/07/24 04:39:15;;;;;;;17.17;11.25;;;;;;;17.65;100.00;99057.88;5049750;28;20021;-65
2022/07/24 04:41:40;;;;;;;16.02;10.68;;;;;;;17.68;100.00;99051.91;5052654;28;20033;-64
2022/07/24 04:44:06;;;;;;;15.32;10.15;;;;;;;17.71;100.00;99063.22;5051349;28;20372;-65
2022/07/24 04:46:32;;;;;;;15.95;9.60;;;;;;;17.77;100.00;99057.84;5051833;28;20017;-64
2022/07/24 04:48:57;;;;;;;14.02;8.88;;;;;;;17.84;100.00;99064.00;5050346;28;20368;-64
2022/07/24 04:51:23;;;;;;;14.05;10.02;;;;;;;17.97;100.00;99069.19;5053442;28;20025;-65
2022/07/24 04:53:52;;;;;;;14.23;9.10;;;;;;;18.09;100.00;99059.00;5043213;28;20116;-65
2022/07/24 04:56:18;;;;;;;;;;;;;;;18.14;100.00;99064.59;5043143;28;20033;-65
2022/07/24 04:58:44;;;;;;;14.82;10.05;;;;;;;18.25;100.00;99059.28;5052345;28;19920;-65
2022/07/24 05:01:09;;;;;;;13.65;10.40;;;;;;;18.35;100.00;99063.03;5049898;28;20028;-67
2022/07/24 05:03:35;;;;;;;14.88;10.32;;;;;;;18.43;100.00;99070.00;5050421;28;20027;-68
2022/07/24 05:06:00;;;;;;;13.35;9.55;;;;;;;18.52;100.00;99068.53;5066400;28;20027;-68
2022/07/24 05:08:25;;;;;;;23.35;10.38;;;;;;;18.58;100.00;99072.19;5049645;28;20017;-68
2022/07/24 05:10:51;;;;;;;16.33;10.20;;;;;;;18.70;100.00;99070.16;5051567;28;20056;-68
2022/07/24 05:13:17;;;;;;;13.75;9.23;;;;;;;18.75;100.00;99077.69;5052155;28;20021;-68
2022/07/24 05:15:43;;;;;;;14.68;10.45;;;;;;;18.85;100.00;99075.09;5046785;28;20071;-68
2022/07/24 05:18:08;;;;;;;13.52;8.85;;;;;;;19.07;100.00;99075.16;5047548;28;20412;-67
2022/07/24 05:20:34;;;;;;;15.77;9.75;;;;;;;19.20;100.00;99063.00;5051386;28;20356;-68
2022/07/24 05:22:59;;;;;;;15.02;10.25;;;;;;;19.34;100.00;99068.97;5048707;28;20028;-68
2022/07/24 05:25:26;;;;;;;14.70;9.52;;;;;;;19.42;100.00;99074.81;5045605;28;20025;-68
2022/07/24 05:27:51;;;;;;;12.85;9.90;;;;;;;19.45;100.00;99071.56;5050194;28;20021;-68
2022/07/24 05:30:16;;;;;;;17.25;9.75;;;;;;;19.59;100.00;99076.66;5051260;28;20025;-68
2022/07/24 05:32:42;;;;;;;13.75;9.43;;;;;;;19.77;100.00;99070.06;5046981;28;20082;-68
2022/07/24 05:35:08;;;;;;;13.00;9.40;;;;;;;19.88;100.00;99072.63;5046653;28;20044;-68
2022/07/24 05:37:33;;;;;;;13.07;9.48;;;;;;;20.10;100.00;99069.88;5049486;28;20024;-68
2022/07/24 05:39:58;;;;;;;19.50;10.00;;;;;;;20.29;100.00;99066.75;5045374;28;20446;-68
2022/07/24 05:42:24;;;;;;;16.25;9.20;;;;;;;20.43;100.00;99067.16;5050954;28;20032;-68
2022/07/24 05:44:49;;;;;;;15.75;10.10;;;;;;;20.67;100.00;99052.00;5048897;28;20098;-68
2022/07/24 05:47:15;;;;;;;11.77;9.15;;;;;;;21.08;100.00;99062.44;5052449;28;20037;-68
2022/07/24 05:49:40;;;;;;;15.70;9.40;;;;;;;21.17;100.00;99061.69;5049764;28;20029;-68
2022/07/24 05:52:05;;;;;;;11.63;9.15;;;;;;;21.37;100.00;99057.38;5047368;28;20055;-68
2022/07/24 05:54:31;;;;;;;15.27;9.30;;;;;;;21.65;100.00;99064.41;5043763;28;20025;-68
2022/07/24 05:56:56;;;;;;;13.23;9.68;;;;;;;21.92;100.00;99064.22;5043541;28;20768;-68
2022/07/24 05:59:22;;;;;;;11.93;8.45;;;;;;;21.89;100.00;99031.72;5043897;28;20032;-68
2022/07/24 06:01:47;;;;;;;12.73;10.00;;;;;;;22.03;97.80;99068.69;5040764;28;20061;-68
2022/07/24 06:04:12;;;;;;;14.20;9.85;;;;;;;22.19;92.85;99063.19;5041120;28;20032;-68
2022/07/24 06:06:38;;;;;;;13.48;9.07;;;;;;;22.06;95.40;99050.75;5050536;28;20071;-68
2022/07/24 06:09:04;;;;;;;11.50;9.38;;;;;;;22.21;95.07;99061.81;5044284;28;20035;-68
2022/07/24 06:11:29;;;;;;;11.13;9.27;;;;;;;22.34;92.94;99054.94;5047446;28;20036;-68
2022/07/24 06:13:55;;;;;;;11.13;9.13;;;;;;;22.62;90.58;99067.38;5050969;28;20021;-68
2022/07/24 06:16:20;;;;;;;10.45;8.70;;;;;;;22.91;85.94;99062.13;5049367;28;20024;-69
2022/07/24 06:18:46;;;;;;;12.23;9.10;;;;;;;22.82;84.94;99063.78;5045728;28;20028;-68
2022/07/24 06:21:11;;;;;;;11.68;8.70;;;;;;;22.69;90.44;99069.88;5047115;28;20039;-68
2022/07/24 06:23:37;;;;;;;14.32;8.82;;;;;;;23.12;86.83;99064.88;5046128;28;20021;-68
2022/07/24 06:26:02;;;;;;;10.80;8.63;;;;;;;23.44;83.68;99071.97;5051108;28;20029;-68
2022/07/24 06:28:28;;;;;;;14.45;9.35;;;;;;;23.52;81.24;99060.31;5051220;28;20087;-68
2022/07/24 06:30:53;;;;;;;10.75;8.57;;;;;;;23.90;79.67;99069.03;5049783;28;20453;-69
2022/07/24 06:33:19;;;;;;;12.50;8.75;;;;;;;24.39;75.75;99068.16;5054070;28;20464;-70
2022/07/24 06:35:46;;;;;;;9.82;8.30;;;;;;;24.98;72.56;99069.91;5043994;28;20361;-71
2022/07/24 06:38:11;;;;;;;9.50;8.00;;;;;;;25.30;67.35;99069.31;5046684;28;20025;-71
2022/07/24 06:40:38;;;;;;;11.35;8.18;;;;;;;25.73;63.89;99061.06;5045517;28;20151;-71
2022/07/24 06:43:04;;;;;;;10.50;7.97;;;;;;;26.32;62.02;99063.59;5048511;28;20017;-70
2022/07/24 06:45:33;;;;;;;10.70;8.18;;;;;;;26.40;60.29;99066.50;5049493;28;20022;-70
2022/07/24 06:48:02;;;;;;;9.77;7.72;;;;;;;27.06;58.10;99063.75;5048082;28;20068;-71
2022/07/24 06:50:29;;;;;;;10.30;8.07;;;;;;;28.47;53.60;99065.03;5047662;28;22361;-71
2022/07/24 06:52:54;;;;;;;9.00;7.53;;;;;;;29.67;50.76;99063.28;5049015;28;20035;-71
2022/07/24 06:55:20;;;;;;;10.52;7.75;;;;;;;31.78;45.61;99057.94;5048207;28;20392;-71
2022/07/24 06:57:45;;;;;;;9.02;6.63;;;;;;;32.77;42.72;99060.16;5045285;28;20033;-71
2022/07/24 07:00:12;;;;;;;9.88;7.55;;;;;;;33.03;42.34;99062.72;5048729;28;20048;-71
2022/07/24 07:02:38;;;;;;;12.38;7.75;;;;;;;33.90;40.13;99056.00;5049113;28;20023;-71
2022/07/24 07:05:06;;;;;;;10.82;7.38;;;;;;;35.08;38.98;99053.94;5047310;28;20028;-71
2022/07/24 07:07:32;;;;;;;10.73;7.40;;;;;;;35.42;37.59;99053.56;5046286;28;20548;-71
2022/07/24 07:09:57;;;;;;;9.70;7.97;;;;;;;35.28;37.36;99051.22;5046271;28;20028;-72
2022/07/24 07:12:23;;;;;;;13.23;7.28;;;;;;;35.95;35.77;99051.25;5041053;28;20399;-72
2022/07/24 07:14:48;;;;;;;11.93;7.75;;;;;;;36.10;35.26;99052.41;5046744;28;20098;-72
2022/07/24 07:17:15;;;;;;;10.63;7.55;;;;;;;35.87;36.06;99047.47;5042948;28;20033;-72
2022/07/24 07:19:42;;;;;;;9.43;7.43;;;;;;;36.16;34.85;99054.59;5044485;28;20025;-72
2022/07/24 07:22:07;;;;;;;12.75;8.05;;;;;;;35.50;36.76;99055.38;5048387;28;20035;-70
2022/07/24 07:24:33;;;;;;;8.45;7.25;;;;;;;36.39;35.73;99057.50;5048257;28;20031;-71
2022/07/24 07:27:01;;;;;;;10.63;7.28;;;;;;;35.91;36.01;99056.78;5045892;28;20032;-71
2022/07/24 07:29:27;;;;;;;;;;;;;;;37.37;33.40;99060.22;5044969;28;20025;-71
2022/07/24 07:31:52;;;;;;;9.65;7.28;;;;;;;37.55;32.20;99058.53;5042267;28;20334;-71
2022/07/24 07:34:17;;;;;;;7.10;6.15;;;;;;;37.53;32.43;99048.81;5049520;28;20087;-71
2022/07/24 07:36:43;;;;;;;6.93;5.32;;;;;;;37.87;32.25;99058.22;5048750;28;20033;-71
2022/07/24 07:39:08;;;;;;;6.90;5.85;;;;;;;37.85;31.17;99052.13;5048041;28;20127;-71
2022/07/24 07:41:34;;;;;;;7.50;5.20;;;;;;;38.49;30.35;99058.75;5046110;28;20490;-72
2022/07/24 07:43:59;;;;;;;8.13;5.97;;;;;;;37.09;32.03;99060.53;5049032;28;20024;-72
2022/07/24 07:46:25;;;;;;;5.88;5.28;;;;;;;37.02;32.21;99053.53;5050608;28;20028;-71
2022/07/24 07:48:51;;;;;;;7.13;5.45;;;;;;;38.54;31.05;99060.41;5045592;28;20029;-72
2022/07/24 07:51:17;;;;;;;7.30;5.15;;;;;;;38.48;30.44;99056.28;5035990;28;20064;-71
2022/07/24 07:53:42;;;;;;;9.80;5.55;;;;;;;38.77;30.14;99055.41;5046991;28;20017;-71
2022/07/24 07:56:07;;;;;;;7.65;5.32;;;;;;;38.82;29.83;99051.44;5047346;28;20040;-72
2022/07/24 07:58:33;;;;;;;7.63;5.18;;;;;;;38.84;28.59;99053.88;5038081;28;20737;-72
2022/07/24 08:01:00;;;;;;;6.05;4.80;;;;;;;39.81;27.87;99047.16;5046563;28;20032;-73
2022/07/24 08:03:26;;;;;;;9.03;5.17;;;;;;;39.30;28.22;99048.72;5049988;28;20725;-71
2022/07/24 08:05:51;;;;;;;10.35;5.10;;;;;;;39.70;27.94;99047.06;5047754;28;20116;-71
2022/07/24 08:08:17;;;;;;;5.95;4.78;;;;;;;39.26;27.94;99050.69;5048566;28;20056;-71
2022/07/24 08:10:43;;;;;;;6.68;5.10;;;;;;;39.92;27.36;99052.88;5051742;28;20052;-71
2022/07/24 08:13:08;;;;;;;9.02;5.45;;;;;;;39.42;28.59;99044.81;5049982;28;20476;-71
2022/07/24 08:15:34;;;;;;;6.57;4.85;;;;;;;38.47;30.04;99055.47;5048644;28;20067;-71
2022/07/24 08:17:59;;;;;;;9.43;5.55;;;;;;;38.34;29.62;99045.59;5048974;28;20461;-71
2022/07/24 08:20:26;;;;;;;6.25;5.00;;;;;;;39.13;29.16;99044.50;5047830;28;20044;-71
2022/07/24 08:22:52;;;;;;;5.57;4.43;;;;;;;40.31;27.51;99042.59;5048444;28;20025;-72
2022/07/24 08:25:18;;;;;;;5.97;4.97;;;;;;;39.93;27.15;99048.84;5050586;28;20017;-72
2022/07/24 08:27:44;;;;;;;5.60;5.00;;;;;;;39.39;27.68;99039.94;5040205;28;20113;-72
2022/07/24 08:30:11;;;;;;;6.18;4.60;;;;;;;39.62;28.37;99046.19;5038932;28;20115;-69
2022/07/24 08:32:38;;;;;;;5.32;4.72;;;;;;;40.77;27.28;99029.00;5046158;28;20029;-69
2022/07/24 08:35:04;;;;;;;7.20;4.53;;;;;;;40.46;26.92;99034.16;5046508;28;20044;-69
2022/07/24 08:37:34;;;;;;;7.00;4.85;;;;;;;40.47;25.98;99030.09;5042912;28;20051;-70
2022/07/24 08:40:00;;;;;;;6.88;4.82;;;;;;;39.31;27.42;99012.72;5045349;28;20029;-69
2022/07/24 08:42:25;;;;;;;6.57;4.90;;;;;;;39.14;27.34;99020.66;5046944;28;20082;-69
2022/07/24 08:44:53;;;;;;;9.80;4.85;;;;;;;40.59;26.65;99018.41;5045849;28;20120;-71
2022/07/24 08:47:22;;;;;;;6.10;4.15;;;;;;;42.15;24.64;99023.75;5044822;28;20048;-69
2022/07/24 08:49:52;;;;;;;4.63;4.13;;;;;;;41.78;25.41;99025.84;5045775;28;20414;-69
2022/07/24 08:52:21;;;;;;;5.13;4.35;;;;;;;40.77;25.59;99024.16;5046199;28;20533;-70
2022/07/24 08:54:47;;;;;;;5.22;4.10;;;;;;;40.52;25.69;99019.19;5047550;28;20524;-70
2022/07/24 08:57:15;;;;;;;6.65;4.25;;;;;;;41.36;24.23;99021.00;5049203;28;20037;-71
2022/07/24 08:59:41;;;;;;;5.65;4.00;;;;;;;39.97;25.70;99021.34;5051638;28;20393;-69
2022/07/24 09:02:07;;;;;;;5.85;4.80;;;;;;;38.74;26.77;99029.94;5049308;28;20021;-70
2022/07/24 09:04:37;;;;;;;6.68;4.60;;;;;;;39.20;26.95;99029.63;5045649;28;20376;-69
2022/07/24 09:07:09;;;;;;;7.13;4.75;;;;;;;38.95;27.40;99027.34;5053476;28;20043;-71
2022/07/24 09:09:37;;;;;;;7.55;4.47;;;;;;;38.58;28.38;99028.13;5047046;28;20500;-71
2022/07/24 09:12:03;;;;;;;5.28;4.30;;;;;;;40.42;26.25;99007.81;5044048;28;20090;-69
2022/07/24 09:14:38;;;;;;;5.97;4.90;;;;;;;40.50;25.75;99026.47;5051562;28;20036;-70
2022/07/24 09:17:09;;;;;;;7.32;4.43;;;;;;;40.74;26.93;99022.09;5045245;28;20021;-70
2022/07/24 09:19:59;;;;;;;5.57;4.20;;;;;;;40.97;26.35;99024.59;5051847;28;20111;-70
2022/07/24 09:22:37;;;;;;;5.75;4.20;;;;;;;42.47;24.86;99030.19;5049073;28;20041;-70
2022/07/24 09:25:12;;;;;;;4.30;3.67;;;;;;;42.91;23.96;99025.06;5051682;28;20047;-72
2022/07/24 09:28:08;;;;;;;6.28;3.92;;;;;;;42.67;24.25;99019.06;5049297;28;20033;-71
2022/07/24 09:30:45;;;;;;;6.57;4.30;;;;;;;42.86;23.53;99025.50;5044534;28;20032;-72
2022/07/24 09:33:11;;;;;;;8.32;4.07;;;;;;;42.91;24.14;99027.91;5041693;28;20021;-71
2022/07/24 09:35:37;;;;;;;6.17;3.77;;;;;;;42.68;24.71;99025.56;5048408;28;20358;-70
2022/07/24 09:38:05;;;;;;;5.25;3.78;;;;;;;42.26;24.44;99021.69;5044251;28;20789;-71
2022/07/24 09:40:35;;;;;;;;;;;;;;;39.61;25.86;99021.06;5040081;28;20032;-72
2022/07/24 09:43:18;;;;;;;6.18;4.28;;;;;;;40.85;25.26;99019.28;5046953;28;19913;-72
2022/07/24 09:46:05;;;;;;;5.47;4.20;;;;;;;41.22;25.56;99016.16;5050510;28;20028;-72
2022/07/24 09:48:34;;;;;;;4.10;3.70;;;;;;;42.53;24.29;99007.78;5050222;22;20045;-66
2022/07/24 09:51:20;;;;;;;5.72;4.05;;;;;;;42.21;24.63;99017.25;5054195;28;20088;-65
2022/07/24 09:53:47;;;;;;;5.20;3.83;;;;;;;42.95;23.74;99019.38;5036912;28;20043;-65
2022/07/24 09:56:14;;;;;;;4.85;4.15;;;;;;;42.69;23.42;99010.94;5040623;28;20028;-66
2022/07/24 09:58:46;;;;;;;4.22;3.60;;;;;;;43.74;22.71;99011.81;5041412;28;20035;-65
2022/07/24 10:01:13;;;;;;;7.53;3.60;;;;;;;43.73;21.88;99001.66;5041089;28;20037;-66
2022/07/24 10:03:40;;;;;;;4.50;3.83;;;;;;;42.54;22.86;99005.75;5026406;28;20040;-66
2022/07/24 10:06:08;;;;;;;8.82;3.65;;;;;;;43.04;22.17;98996.91;5046625;28;20155;-66
2022/07/24 10:08:35;;;;;;;3.65;3.35;;;;;;;43.16;22.51;99002.13;5043733;28;20067;-66
2022/07/24 10:11:01;;;;;;;6.13;3.80;;;;;;;42.72;21.67;98986.53;5044561;28;20032;-66
2022/07/24 10:13:30;;;;;;;5.32;3.20;;;;;;;42.76;21.77;98998.75;5040681;28;20032;-66
2022/07/24 10:15:55;;;;;;;5.35;3.33;;;;;;;43.00;22.17;98996.16;5037956;28;20435;-65
2022/07/24 10:18:25;;;;;;;4.10;3.70;;;;;;;42.68;22.09;98994.28;5046194;28;20035;-66
2022/07/24 10:21:06;;;;;;;5.55;3.30;;;;;;;44.12;21.38;98979.63;5043611;28;20029;-66
2022/07/24 10:23:47;;;;;;;5.38;4.20;;;;;;;42.62;21.82;98987.41;5046124;28;20578;-65
2022/07/24 10:26:24;;;;;;;4.00;3.50;;;;;;;42.54;23.28;98988.69;5043214;28;20501;-65
2022/07/24 10:28:57;;;;;;;4.75;4.15;;;;;;;42.72;22.99;98985.72;5043619;28;20036;-66
2022/07/24 10:31:22;;;;;;;4.53;3.60;;;;;;;41.81;23.21;98981.59;5047979;28;20041;-66
2022/07/24 10:33:54;;;;;;;8.57;3.85;;;;;;;41.89;23.70;98979.56;5048689;28;20031;-66
2022/07/24 10:36:24;;;;;;;7.63;4.35;;;;;;;40.62;24.30;98977.88;5045925;28;20036;-65
2022/07/24 10:39:05;;;;;;;4.15;3.75;;;;;;;42.82;21.74;98950.72;5037959;28;20058;-65
2022/07/24 10:41:32;;;;;;;4.47;3.80;;;;;;;41.78;23.24;98968.22;5016898;28;20676;-65
2022/07/24 10:44:19;;;;;;;4.32;3.70;;;;;;;42.94;21.56;98963.66;5039604;28;20167;-66
2022/07/24 10:47:04;;;;;;;5.32;3.60;;;;;;;41.02;23.10;98970.28;5039471;28;20036;-65
2022/07/24 10:49:47;;;;;;;5.13;3.90;;;;;;;41.22;23.77;98969.91;5042433;28;20394;-66
2022/07/24 10:52:24;;;;;;;6.03;3.90;;;;;;;42.45;23.90;98961.50;5045549;28;20032;-66
2022/07/24 10:55:19;;;;;;;8.32;4.28;;;;;;;41.95;23.71;98961.72;5042960;28;20037;-65
2022/07/24 10:57:56;;;;;;;5.57;4.22;;;;;;;41.88;24.33;98958.06;5018286;28;20032;-65
2022/07/24 11:00:36;;;;;;;6.38;4.03;;;;;;;41.85;24.01;98961.72;5041484;28;20040;-65
2022/07/24 11:03:17;;;;;;;7.50;4.00;;;;;;;43.23;22.67;98953.69;5037604;28;20024;-66
2022/07/24 11:05:43;;;;;;;4.45;4.05;;;;;;;43.11;22.91;98954.16;5035130;28;20124;-65
2022/07/24 11:08:11;;;;;;;4.90;3.97;;;;;;;43.07;23.05;98944.81;5042095;28;20029;-65
2022/07/24 11:10:50;;;;;;;4.45;3.75;;;;;;;43.19;22.50;98952.88;5043356;28;20033;-66
2022/07/24 11:13:31;;;;;;;4.50;3.53;;;;;;;42.85;22.69;98950.69;5035902;28;20032;-65
2022/07/24 11:16:11;;;;;;;4.63;3.70;;;;;;;43.60;22.16;98948.44;5037964;28;20064;-65
2022/07/24 11:18:41;;;;;;;4.10;3.67;;;;;;;42.97;22.58;98945.72;5043133;28;20757;-66
2022/07/24 11:21:07;;;;;;;4.13;3.72;;;;;;;42.47;23.39;98950.53;5040686;28;20052;-66
2022/07/24 11:23:33;;;;;;;5.03;3.35;;;;;;;43.23;22.19;98953.69;5043049;28;20108;-67
2022/07/24 11:26:44;;;;;;;4.80;3.60;;;;;;;41.38;23.69;98944.75;5038370;28;20675;-65